Flight Track Log - Related Links

Times and Time Zones

All times are in EDT time to prevent confusion due to time zone crossing. See the ASA614 flight status page for this flight to view local times or setup timezone preferences in your user account.

Time Position Orientation Groundspeed Altitude Reporting Facility
EDT Latitude Longitude Course Direction KTS MPH feet Rate Location/Type
Sat 12:42:24 AM 47.4733 -122.3122 North 167 192 1,300  Level Seattle Center
Sat 12:43:39 AM 47.5369 -122.3111 North 196 226 3,600 2,074 Climbing Seattle Center
Sat 12:44:40 AM 47.6047 -122.2839 15° North 254 292 6,000 2,529 Climbing Seattle Center
Sat 12:45:40 AM 47.6042 -122.1739 90° East 271 312 8,700 2,529 Climbing Seattle Center
Sat 12:46:41 AM 47.5303 -122.1292 158° South 316 364 11,100 1,785 Climbing Seattle Center
Sat 12:47:41 AM 47.4319 -122.1128 174° South 354 407 12,300 1,636 Climbing Seattle Center
Sat 12:48:42 AM 47.3211 -122.0953 174° South 394 453 14,400 2,231 Climbing Seattle Center
Sat 12:49:42 AM 47.2067 -122.0775 174° South 411 473 16,800 2,083 Climbing Seattle Center
Sat 12:50:43 AM 47.0994 -122.0611 174° South 428 493 18,600 1,869 Climbing Seattle Center
Sat 12:51:44 AM 46.9794 -122.0267 169° South 441 507 20,600 1,835 Climbing Seattle Center
Sat 12:52:44 AM 46.8583 -121.9806 165° South 455 524 22,300 1,587 Climbing Seattle Center
Sat 12:53:45 AM 46.7319 -121.9350 166° South 470 541 23,800 1,488 Climbing Seattle Center
Sat 12:54:45 AM 46.6003 -121.8847 165° South 491 565 25,300 1,537 Climbing Seattle Center
Sat 12:55:46 AM 46.4383 -121.8283 167° South 503 579 26,900 1,426 Climbing Seattle Center
Sat 12:56:47 AM 46.3008 -121.7769 166° South 513 590 28,200 1,289 Climbing Seattle Center
Sat 12:57:47 AM 46.1619 -121.7289 167° South 519 597 29,500 1,289 Climbing Seattle Center
Sat 12:58:48 AM 46.0222 -121.6794 166° South 518 596 30,800 1,140 Climbing Seattle Center
Sat 12:59:48 AM 45.8819 -121.6269 165° South 522 601 31,800 1,041 Climbing Seattle Center
Sat 01:00:49 AM 45.7389 -121.5786 167° South 528 608 32,900 1,240 Climbing Seattle Center
Sat 01:01:49 AM 45.5978 -121.5294 166° South 528 608 34,300 1,041 Climbing Seattle Center
Sat 01:02:50 AM 45.4578 -121.4806 166° South 523 602 35,000 347 Climbing Seattle Center
Sat 01:03:50 AM 45.3169 -121.4314 166° South 523 602 35,000  Level Seattle Center
Sat 01:04:51 AM 45.1772 -121.3842 167° South 520 598 35,000  Level Seattle Center
Sat 01:05:52 AM 45.0383 -121.3361 166° South 518 596 35,000  Level Seattle Center
Sat 01:06:52 AM 44.9003 -121.2886 166° South 515 593 35,000  Level Seattle Center
Sat 01:07:53 AM 44.7625 -121.2417 166° South 514 592 35,000  Level Seattle Center
Sat 01:08:53 AM 44.6153 -121.1928 167° South 517 595 35,000  Level Seattle Center
Sat 01:09:54 AM 44.4747 -121.1453 166° South 517 595 35,000  Level Seattle Center
Sat 01:10:54 AM 44.3181 -121.0936 167° South 514 592 35,000  Level Seattle Center
Sat 01:11:55 AM 44.1778 -121.0475 167° South 518 596 35,000  Level Seattle Center
Sat 01:12:55 AM 44.0408 -121.0025 167° South 512 589 35,000  Level Seattle Center
Sat 01:13:56 AM 43.9047 -120.9583 167° South 503 579 35,000  Level Seattle Center
Sat 01:14:56 AM 43.7689 -120.9136 167° South 505 581 35,000  Level Seattle Center
Sat 01:15:57 AM 43.6336 -120.8697 167° South 501 577 35,000  Level Seattle Center
Sat 01:16:57 AM 43.5150 -120.8344 168° South 503 579 35,000  Level Seattle Center
Sat 01:17:58 AM 43.3800 -120.7914 167° South 500 575 35,000  Level Seattle Center
Sat 01:18:58 AM 43.2183 -120.7408 167° South 497 572 35,000  Level Seattle Center
Sat 01:19:59 AM 43.0833 -120.6967 167° South 497 572 35,000  Level Seattle Center
Sat 01:20:59 AM 42.9489 -120.6547 167° South 495 570 35,000  Level Seattle Center
Sat 01:22:00 AM 42.8156 -120.6108 166° South 493 567 35,000  Level Seattle Center
Sat 01:23:00 AM 42.6822 -120.5703 167° South 490 564 35,000  Level Seattle Center
Sat 01:24:01 AM 42.5503 -120.5267 166° South 486 559 35,000  Level Seattle Center
Sat 01:25:01 AM 42.4183 -120.4794 165° South 487 560 35,000  Level Seattle Center
Sat 01:26:02 AM 42.2883 -120.4272 163° South 486 559 35,000  Level Seattle Center
Sat 01:27:02 AM 42.1592 -120.3772 164° South 481 554 35,000  Level Seattle Center
Sat 01:28:03 AM 42.0294 -120.3253 163° South 484 557 35,000  Level Seattle Center
Sat 01:29:03 AM 41.8983 -120.2736 164° South 488 562 35,000  Level Seattle Center
Sat 01:30:04 AM 41.7653 -120.2258 165° South 492 566 35,000  Level Seattle Center
Sat 01:31:04 AM 41.6394 -120.1756 163° South 479 551 35,000  Level Seattle Center
Sat 01:32:05 AM 41.5125 -120.1258 164° South 476 548 35,000  Level Seattle Center
Sat 01:33:05 AM 41.3861 -120.0753 163° South 474 545 35,000  Level Seattle Center
Sat 01:33:50 AM 41.3094 -120.0458 164° South 476 548 35,000  Level Oakland Center
Sat 01:34:06 AM 41.2586 -120.0269 164° South 475 547 35,000  Level Seattle Center
Sat 01:35:06 AM 41.1308 -119.9772 164° South 477 549 35,000  Level Seattle Center
Sat 01:36:07 AM 41.0008 -119.9300 165° South 481 554 35,000  Level Seattle Center
Sat 01:37:07 AM 40.8736 -119.8811 164° South 477 549 35,000  Level Seattle Center
Sat 01:37:53 AM 40.7717 -119.8419 164° South 477 549 35,000  Level Oakland Center
Sat 01:38:54 AM 40.6433 -119.7958 165° South 477 549 35,000 843 Level Oakland Center
Sat 01:39:54 AM 40.5114 -119.7447 164° South 471 542 36,700 992 Climbing Oakland Center
Sat 01:40:55 AM 40.3903 -119.7011 165° South 456 525 37,000 148 Climbing Oakland Center
Sat 01:41:56 AM 40.2661 -119.6544 164° South 461 531 37,000  Level Oakland Center
Sat 01:42:56 AM 40.1411 -119.6092 165° South 465 535 37,000  Level Oakland Center
Sat 01:43:57 AM 40.0167 -119.5633 164° South 466 536 37,000  Level Oakland Center
Sat 01:44:57 AM 39.8911 -119.5189 165° South 469 540 37,000  Level Oakland Center
Sat 01:45:58 AM 39.7647 -119.4728 164° South 472 543 37,000  Level Oakland Center
Sat 01:46:59 AM 39.6403 -119.4258 164° South 470 541 37,000  Level Oakland Center
Sat 01:47:59 AM 39.5153 -119.3822 165° South 469 540 37,000  Level Oakland Center
Sat 01:49:00 AM 39.3911 -119.3369 164° South 467 537 37,000  Level Oakland Center
Sat 01:50:01 AM 39.2683 -119.2911 164° South 465 535 37,000  Level Oakland Center
Sat 01:51:01 AM 39.1631 -119.1931 144° Southeast 477 549 37,000  Level Oakland Center
Sat 01:52:02 AM 39.0497 -119.0489 135° Southeast 482 555 37,000  Level Oakland Center
Sat 01:53:02 AM 38.9542 -118.9303 136° Southeast 482 555 37,000  Level Oakland Center
Sat 01:54:03 AM 38.8586 -118.8117 136° Southeast 482 555 37,000  Level Oakland Center
Sat 01:55:04 AM 38.7608 -118.6900 136° Southeast 489 563 37,000  Level Oakland Center
Sat 01:56:04 AM 38.6636 -118.5697 136° Southeast 489 563 37,000  Level Oakland Center
Sat 01:57:05 AM 38.5656 -118.4511 137° Southeast 487 560 37,000  Level Oakland Center
Sat 01:58:05 AM 38.4664 -118.3311 137° Southeast 491 565 37,000  Level Oakland Center
Sat 01:59:06 AM 38.3686 -118.2117 136° Southeast 490 564 37,000  Level Oakland Center
Sat 02:00:07 AM 38.2622 -118.0822 136° Southeast 490 564 37,000  Level Oakland Center
Sat 02:01:07 AM 38.1642 -117.9619 136° Southeast 491 565 37,000  Level Oakland Center
Sat 02:02:08 AM 38.0644 -117.8447 137° Southeast 490 564 37,000  Level Oakland Center
Sat 02:03:09 AM 37.9611 -117.7325 139° Southeast 493 567 37,000  Level Oakland Center
Sat 02:04:10 AM 37.8508 -117.6400 146° Southeast 480 552 37,000 -550 Level Oakland Center
Sat 02:05:09 AM 37.7447 -117.5469 145° Southeast 470 541 35,900 -1,000 Descending Oakland Center
Sat 02:06:10 AM 37.6369 -117.4567 146° Southeast 468 539 35,000 -942 Descending Oakland Center
Sat 02:07:10 AM 37.5306 -117.3650 146° Southeast 466 536 34,000 -893 Descending Oakland Center
Sat 02:08:11 AM 37.4225 -117.2736 146° Southeast 468 539 33,200 -496 Descending Oakland Center
Sat 02:09:11 AM 37.3147 -117.1806 146° Southeast 470 541 33,000 -198 Descending Oakland Center
Sat 02:10:12 AM 37.2047 -117.0917 147° Southeast 471 542 32,800 -424 Descending Oakland Center
Sat 02:10:36 AM 37.1611 -117.0494 142° Southeast 480 552 32,400 -1,000 Descending Los Angeles Center
Sat 02:11:12 AM 37.0933 -116.9989 149° Southeast 478 550 31,800 -990 Descending Oakland Center
Sat 02:12:13 AM 36.9850 -116.9042 145° Southeast 476 548 30,800 -988 Descending Oakland Center
Sat 02:12:37 AM 36.9417 -116.8669 146° Southeast 472 543 30,400 -1,059 Descending Los Angeles Center
Sat 02:13:38 AM 36.8358 -116.7769 146° Southeast 463 533 29,300 -1,131 Descending Los Angeles Center
Sat 02:14:39 AM 36.7278 -116.6444 135° Southeast 456 525 28,100 -1,082 Descending Los Angeles Center
Sat 02:15:40 AM 36.6456 -116.5256 131° Southeast 453 521 27,100 -1,426 Descending Los Angeles Center
Sat 02:16:41 AM 36.5658 -116.4114 131° Southeast 441 507 25,200 -1,884 Descending Los Angeles Center
Sat 02:17:41 AM 36.4953 -116.3136 132° Southeast 429 494 23,300 -2,083 Descending Los Angeles Center
Sat 02:18:42 AM 36.4111 -116.1917 131° Southeast 414 476 21,000 -2,115 Descending Los Angeles Center
Sat 02:19:43 AM 36.3381 -116.0906 132° Southeast 396 456 19,000 -2,056 Descending Los Angeles Center
Sat 02:20:30 AM 36.2808 -116.0172 134° Southeast 385 443 17,300 -1,667 Descending Los Angeles Center
Sat 02:21:31 AM 36.2139 -115.9242 132° Southeast 369 425 16,000 -689 Descending Los Angeles Center
Sat 02:22:32 AM 36.1731 -115.8228 116° Southeast 331 381 15,900 -248 Descending Los Angeles Center
Sat 02:23:32 AM 36.1383 -115.7092 111° Southeast 327 376 15,500 -942 Descending Los Angeles Center
Sat 02:24:33 AM 36.1064 -115.6103 112° Southeast 319 367 14,000 -1,513 Descending Los Angeles Center
Sat 02:25:27 AM 36.0761 -115.5192 112° Southeast 307 353 12,600 -1,541 Descending Los Angeles Center
Sat 02:25:47 AM 36.0672 -115.4869 109° East 305 351 12,100 -1,377 Descending Los Angeles Center
Sat 02:26:28 AM 36.0447 -115.4231 114° Southeast 302 348 11,200 -1,082 Descending Los Angeles Center
Sat 02:26:48 AM 36.0358 -115.3925 110° East 300 345 11,000 -492 Descending Los Angeles Center
Sat 02:27:29 AM 36.0269 -115.3306 100° East 284 327 10,700 -689 Descending Los Angeles Center
Sat 02:27:49 AM 36.0253 -115.2992 94° East 285 328 10,300 -1,400 Descending Los Angeles Center
Sat 02:28:29 AM 36.0197 -115.2372 96° East 275 316 9,300 -1,400 Descending Los Angeles Center
Sat 02:28:49 AM 36.0186 -115.2061 93° East 275 316 8,900 -1,377 Descending Los Angeles Center
Sat 02:29:30 AM 36.0144 -115.1433 95° East 274 315 7,900 -1,279 Descending Los Angeles Center
Sat 02:29:50 AM 36.0119 -115.1139 96° East 272 313 7,600 -1,100 Descending Los Angeles Center
Sat 02:30:30 AM 36.0072 -115.0500 95° East 255 293 6,800 -1,082 Descending Los Angeles Center
Sat 02:30:51 AM 36.0061 -115.0250 93° East 265 305 6,500 -1,279 Descending Los Angeles Center
Sat 02:31:31 AM 36.0106 -114.9664 85° East 250 288 5,500 -1,300 Descending Los Angeles Center
Sat 02:31:51 AM 36.0231 -114.9508 45° Northeast 254 292 5,200 -1,082 Descending Los Angeles Center
Sat 02:32:32 AM 36.0567 -114.9697 336° Northwest 205 236 4,400 -984 Descending Los Angeles Center
Sat 02:32:52 AM 36.0642 -114.9850 301° West 227 261 4,200 -1,000 Descending Los Angeles Center
Sat 02:33:32 AM 36.0728 -115.0336 282° West 186 214 3,400 -1,082 Descending Los Angeles Center
Sat 02:33:53 AM 36.0756 -115.0456 286° West 199 229 3,100 -787 Descending Los Angeles Center
Sat 02:34:33 AM 36.0739 -115.0892 267° West 158 182 2,600 -700 Descending Los Angeles Center
Sat 02:34:53 AM 36.0739 -115.1008 270° West 177 204 2,400 -370 Descending Los Angeles Center
Sat 02:35:54 AM 36.0739 -115.1497 270° West 158 182 2,100 -295 Descending Los Angeles Center
Sat 02:37:00 AM 36.0667 -115.1500 270° West  Level FlightAware Approximate

Login

Don't have an account? Register now (free) for customized features, flight alerts, and more!